Cape Mail — YJTN6 — position and weather

sailwx.info

Track history (hours):
 
Tides and Currents Weather Stations Pressure Air Temp Water Temp Dewpoint Dewpoint Depression Visibility Wind Speed Wind Dir Waves Ship Positions

Cape Mail

Last reported at 2018-Jun-11 20:33 UTC. Time now 2018-Jun-18 09:37 UTC.
Position N 25°13' W 077°25'.

Length 67 m; draft 3.5 m.

Type: Cargo ship. MMSI: 577199000.

Date/timePositionNaut miles runAvg speedWind from/ knotsBaromVisibWave heightAir tempDewpointWater temp
2018-Jun-11 20:33N 25°13' W 077°25'110.3
2018-Jun-11 20:27N 25°12' W 077°24'510.3
2018-Jun-11 20:00N 25°07' W 077°22'  
2018-Jun-07 02:00N 25°59' W 079°42'4 8.5
2018-Jun-07 01:30N 26°00' W 079°46'4 8.8
2018-Jun-07 00:59N 26°02' W 079°51'4 9.3
2018-Jun-07 00:30N 26°03' W 079°56'5 9.7
2018-Jun-07 00:00N 26°05' W 080°01'4 8.9
2018-Jun-06 23:31N 26°06' W 080°06'1 2.1
2018-Jun-06 22:51N 26°05' W 080°07'0 0.0
2018-Jun-06 22:21N 26°05' W 080°07'0 0.0
2018-Jun-06 21:57N 26°05' W 080°07'0 0.0
2018-Jun-06 21:24N 26°05' W 080°07'0 0.0
2018-Jun-06 20:57N 26°05' W 080°07'0 0.0
2018-Jun-06 20:27N 26°05' W 080°07'0 0.0
2018-Jun-06 19:54N 26°05' W 080°07'0 0.0
2018-Jun-06 19:27N 26°05' W 080°07'0 0.0
2018-Jun-06 18:54N 26°05' W 080°07'0 0.0
2018-Jun-06 18:27N 26°05' W 080°07'0 0.0
2018-Jun-06 18:00N 26°05' W 080°07'0 0.0
2018-Jun-06 17:30N 26°05' W 080°07'3 5.3
2018-Jun-06 17:00N 26°06' W 080°04'4 8.1
2018-Jun-06 16:30N 26°04' W 080°00'4 8.2
2018-Jun-06 16:00N 26°03' W 079°56'4 8.2
2018-Jun-06 15:30N 26°02' W 079°51'4 8.6
2018-Jun-06 15:00N 26°01' W 079°47'  
Track history (hours):
 
Tides and Currents Weather Stations Pressure Air Temp Water Temp Dewpoint Dewpoint Depression Visibility Wind Speed Wind Dir Waves Ship Positions

Cape Mail

Last reported at 2018-Jun-11 20:33 UTC. Time now 2018-Jun-18 09:37 UTC.
Position N 25°13' W 077°25'.

Length 67 m; draft 3.5 m.

Type: Cargo ship. MMSI: 577199000.

Date/timePositionNaut miles runAvg speedWind from/ knotsBaromVisibWave heightAir tempDewpointWater temp
2018-Jun-11 20:33N 25°13' W 077°25'110.3
2018-Jun-11 20:27N 25°12' W 077°24'510.3
2018-Jun-11 20:00N 25°07' W 077°22'  
2018-Jun-07 02:00N 25°59' W 079°42'4 8.5
2018-Jun-07 01:30N 26°00' W 079°46'4 8.8
2018-Jun-07 00:59N 26°02' W 079°51'4 9.3
2018-Jun-07 00:30N 26°03' W 079°56'5 9.7
2018-Jun-07 00:00N 26°05' W 080°01'4 8.9
2018-Jun-06 23:31N 26°06' W 080°06'1 2.1
2018-Jun-06 22:51N 26°05' W 080°07'0 0.0
2018-Jun-06 22:21N 26°05' W 080°07'0 0.0
2018-Jun-06 21:57N 26°05' W 080°07'0 0.0
2018-Jun-06 21:24N 26°05' W 080°07'0 0.0
2018-Jun-06 20:57N 26°05' W 080°07'0 0.0
2018-Jun-06 20:27N 26°05' W 080°07'0 0.0
2018-Jun-06 19:54N 26°05' W 080°07'0 0.0
2018-Jun-06 19:27N 26°05' W 080°07'0 0.0
2018-Jun-06 18:54N 26°05' W 080°07'0 0.0
2018-Jun-06 18:27N 26°05' W 080°07'0 0.0
2018-Jun-06 18:00N 26°05' W 080°07'0 0.0
2018-Jun-06 17:30N 26°05' W 080°07'3 5.3
2018-Jun-06 17:00N 26°06' W 080°04'4 8.1
2018-Jun-06 16:30N 26°04' W 080°00'4 8.2
2018-Jun-06 16:00N 26°03' W 079°56'4 8.2
2018-Jun-06 15:30N 26°02' W 079°51'4 8.6
2018-Jun-06 15:00N 26°01' W 079°47'  

Dump ship's entire track history